sensor_id;sensor_type;location;lat;lon;timestamp;P1;durP1;ratioP1;P2;durP2;ratioP2
63801;SDS011;49949;43.060;25.624;2023-04-30T00:01:41;10.00;;;5.22;;
63801;SDS011;49949;43.060;25.624;2023-04-30T00:04:07;10.70;;;5.15;;
63801;SDS011;49949;43.060;25.624;2023-04-30T00:06:40;8.90;;;5.20;;
63801;SDS011;49949;43.060;25.624;2023-04-30T00:09:08;6.28;;;4.15;;
63801;SDS011;49949;43.060;25.624;2023-04-30T00:11:34;6.20;;;3.97;;
63801;SDS011;49949;43.060;25.624;2023-04-30T00:14:00;6.07;;;3.50;;
63801;SDS011;49949;43.060;25.624;2023-04-30T00:16:26;9.27;;;4.38;;
63801;SDS011;49949;43.060;25.624;2023-04-30T00:18:51;6.35;;;3.95;;
63801;SDS011;49949;43.060;25.624;2023-04-30T00:21:18;10.98;;;4.03;;
63801;SDS011;49949;43.060;25.624;2023-04-30T00:23:44;6.65;;;3.53;;
63801;SDS011;49949;43.060;25.624;2023-04-30T00:26:18;4.65;;;3.50;;
63801;SDS011;49949;43.060;25.624;2023-04-30T00:28:44;5.20;;;4.05;;
63801;SDS011;49949;43.060;25.624;2023-04-30T00:31:10;5.90;;;4.28;;
63801;SDS011;49949;43.060;25.624;2023-04-30T00:33:39;6.70;;;3.60;;
63801;SDS011;49949;43.060;25.624;2023-04-30T00:36:10;6.43;;;3.38;;
63801;SDS011;49949;43.060;25.624;2023-04-30T00:38:36;5.55;;;3.85;;
63801;SDS011;49949;43.060;25.624;2023-04-30T00:41:04;5.43;;;3.97;;
63801;SDS011;49949;43.060;25.624;2023-04-30T00:43:30;10.45;;;4.38;;
63801;SDS011;49949;43.060;25.624;2023-04-30T00:45:56;7.50;;;4.60;;
63801;SDS011;49949;43.060;25.624;2023-04-30T00:48:23;8.18;;;4.55;;
63801;SDS011;49949;43.060;25.624;2023-04-30T00:50:49;7.47;;;3.72;;
63801;SDS011;49949;43.060;25.624;2023-04-30T00:53:14;5.40;;;3.28;;
63801;SDS011;49949;43.060;25.624;2023-04-30T00:55:41;5.80;;;3.83;;
63801;SDS011;49949;43.060;25.624;2023-04-30T00:58:13;8.23;;;3.95;;
63801;SDS011;49949;43.060;25.624;2023-04-30T01:00:40;7.13;;;3.72;;
63801;SDS011;49949;43.060;25.624;2023-04-30T01:03:11;7.40;;;4.07;;
63801;SDS011;49949;43.060;25.624;2023-04-30T01:05:37;4.72;;;3.80;;
63801;SDS011;49949;43.060;25.624;2023-04-30T01:08:03;7.05;;;4.13;;
63801;SDS011;49949;43.060;25.624;2023-04-30T01:10:31;6.47;;;4.28;;
63801;SDS011;49949;43.060;25.624;2023-04-30T01:13:26;9.30;;;4.70;;
63801;SDS011;49949;43.060;25.624;2023-04-30T01:16:18;8.63;;;4.68;;
63801;SDS011;49949;43.060;25.624;2023-04-30T01:19:14;8.15;;;4.70;;
63801;SDS011;49949;43.060;25.624;2023-04-30T01:21:59;8.88;;;4.90;;
63801;SDS011;49949;43.060;25.624;2023-04-30T01:31:12;10.27;;;4.97;;
63801;SDS011;49949;43.060;25.624;2023-04-30T01:33:40;5.82;;;4.05;;
63801;SDS011;49949;43.060;25.624;2023-04-30T01:36:12;8.77;;;4.47;;
63801;SDS011;49949;43.060;25.624;2023-04-30T01:53:12;8.52;;;3.97;;
63801;SDS011;49949;43.060;25.624;2023-04-30T01:55:56;7.63;;;3.97;;
63801;SDS011;49949;43.060;25.624;2023-04-30T01:58:28;6.95;;;4.50;;
63801;SDS011;49949;43.060;25.624;2023-04-30T02:00:54;12.35;;;6.97;;
63801;SDS011;49949;43.060;25.624;2023-04-30T02:03:34;6.97;;;4.97;;
63801;SDS011;49949;43.060;25.624;2023-04-30T02:06:00;17.48;;;5.55;;
63801;SDS011;49949;43.060;25.624;2023-04-30T02:08:26;7.18;;;4.47;;
63801;SDS011;49949;43.060;25.624;2023-04-30T02:10:52;10.07;;;4.50;;
63801;SDS011;49949;43.060;25.624;2023-04-30T02:13:31;10.35;;;5.03;;
63801;SDS011;49949;43.060;25.624;2023-04-30T02:15:57;16.58;;;5.57;;
63801;SDS011;49949;43.060;25.624;2023-04-30T02:19:04;11.45;;;5.00;;
63801;SDS011;49949;43.060;25.624;2023-04-30T02:21:30;6.65;;;4.60;;
63801;SDS011;49949;43.060;25.624;2023-04-30T02:23:56;8.00;;;4.50;;
63801;SDS011;49949;43.060;25.624;2023-04-30T02:26:22;5.97;;;3.83;;
63801;SDS011;49949;43.060;25.624;2023-04-30T02:28:48;6.65;;;4.07;;
63801;SDS011;49949;43.060;25.624;2023-04-30T02:31:14;6.13;;;4.55;;
63801;SDS011;49949;43.060;25.624;2023-04-30T02:33:40;8.48;;;4.78;;
63801;SDS011;49949;43.060;25.624;2023-04-30T02:36:49;6.95;;;4.80;;
63801;SDS011;49949;43.060;25.624;2023-04-30T02:39:14;8.93;;;4.50;;
63801;SDS011;49949;43.060;25.624;2023-04-30T02:41:41;6.47;;;4.55;;
63801;SDS011;49949;43.060;25.624;2023-04-30T02:44:07;7.50;;;4.50;;
63801;SDS011;49949;43.060;25.624;2023-04-30T02:46:37;9.50;;;4.65;;
63801;SDS011;49949;43.060;25.624;2023-04-30T02:49:03;7.20;;;4.60;;
63801;SDS011;49949;43.060;25.624;2023-04-30T02:51:29;11.88;;;5.50;;
63801;SDS011;49949;43.060;25.624;2023-04-30T02:54:02;8.95;;;5.25;;
63801;SDS011;49949;43.060;25.624;2023-04-30T02:56:28;12.77;;;5.05;;
63801;SDS011;49949;43.060;25.624;2023-04-30T03:01:55;11.77;;;4.57;;
63801;SDS011;49949;43.060;25.624;2023-04-30T03:04:21;9.20;;;5.18;;
63801;SDS011;49949;43.060;25.624;2023-04-30T03:06:47;9.50;;;5.03;;
63801;SDS011;49949;43.060;25.624;2023-04-30T03:09:13;10.07;;;5.10;;
63801;SDS011;49949;43.060;25.624;2023-04-30T03:11:39;9.73;;;5.10;;
63801;SDS011;49949;43.060;25.624;2023-04-30T03:14:05;11.60;;;5.45;;
63801;SDS011;49949;43.060;25.624;2023-04-30T03:16:31;10.30;;;5.35;;
63801;SDS011;49949;43.060;25.624;2023-04-30T03:18:57;9.27;;;4.80;;
63801;SDS011;49949;43.060;25.624;2023-04-30T03:21:23;7.38;;;4.88;;
63801;SDS011;49949;43.060;25.624;2023-04-30T03:23:54;10.00;;;4.75;;
63801;SDS011;49949;43.060;25.624;2023-04-30T03:26:19;7.40;;;4.65;;
63801;SDS011;49949;43.060;25.624;2023-04-30T03:28:46;9.70;;;6.10;;
63801;SDS011;49949;43.060;25.624;2023-04-30T03:31:11;9.85;;;5.72;;
63801;SDS011;49949;43.060;25.624;2023-04-30T03:33:37;15.15;;;6.40;;
63801;SDS011;49949;43.060;25.624;2023-04-30T03:36:03;8.48;;;5.32;;
63801;SDS011;49949;43.060;25.624;2023-04-30T03:38:29;7.43;;;5.47;;
63801;SDS011;49949;43.060;25.624;2023-04-30T03:40:55;7.63;;;5.18;;
63801;SDS011;49949;43.060;25.624;2023-04-30T03:43:37;8.60;;;5.20;;
63801;SDS011;49949;43.060;25.624;2023-04-30T03:46:03;14.88;;;5.80;;
63801;SDS011;49949;43.060;25.624;2023-04-30T03:48:29;75.60;;;10.52;;
63801;SDS011;49949;43.060;25.624;2023-04-30T03:50:55;11.57;;;6.20;;
63801;SDS011;49949;43.060;25.624;2023-04-30T03:53:21;10.18;;;5.40;;
63801;SDS011;49949;43.060;25.624;2023-04-30T03:55:47;14.00;;;5.30;;
63801;SDS011;49949;43.060;25.624;2023-04-30T03:58:17;11.48;;;4.97;;
63801;SDS011;49949;43.060;25.624;2023-04-30T04:00:43;10.45;;;4.28;;
63801;SDS011;49949;43.060;25.624;2023-04-30T04:03:12;15.50;;;4.50;;
63801;SDS011;49949;43.060;25.624;2023-04-30T04:05:39;8.52;;;4.07;;
63801;SDS011;49949;43.060;25.624;2023-04-30T04:08:05;9.30;;;3.58;;
63801;SDS011;49949;43.060;25.624;2023-04-30T04:10:37;8.20;;;3.75;;
63801;SDS011;49949;43.060;25.624;2023-04-30T04:13:04;6.45;;;3.25;;
63801;SDS011;49949;43.060;25.624;2023-04-30T04:15:31;7.47;;;3.10;;
63801;SDS011;49949;43.060;25.624;2023-04-30T04:17:58;6.88;;;3.03;;
63801;SDS011;49949;43.060;25.624;2023-04-30T04:20:24;5.00;;;2.80;;
63801;SDS011;49949;43.060;25.624;2023-04-30T04:22:50;14.20;;;3.67;;
63801;SDS011;49949;43.060;25.624;2023-04-30T04:25:16;23.75;;;4.28;;
63801;SDS011;49949;43.060;25.624;2023-04-30T04:27:43;17.45;;;4.07;;
63801;SDS011;49949;43.060;25.624;2023-04-30T04:30:09;12.48;;;4.35;;
63801;SDS011;49949;43.060;25.624;2023-04-30T04:32:35;29.60;;;6.50;;
63801;SDS011;49949;43.060;25.624;2023-04-30T04:35:10;17.10;;;5.47;;
63801;SDS011;49949;43.060;25.624;2023-04-30T04:40:49;17.42;;;5.93;;
63801;SDS011;49949;43.060;25.624;2023-04-30T04:43:17;14.13;;;4.93;;
63801;SDS011;49949;43.060;25.624;2023-04-30T04:45:44;14.25;;;5.38;;
63801;SDS011;49949;43.060;25.624;2023-04-30T04:48:11;13.02;;;5.30;;
63801;SDS011;49949;43.060;25.624;2023-04-30T04:50:37;14.57;;;5.22;;
63801;SDS011;49949;43.060;25.624;2023-04-30T04:53:03;18.73;;;6.07;;
63801;SDS011;49949;43.060;25.624;2023-04-30T04:55:28;15.25;;;5.28;;
63801;SDS011;49949;43.060;25.624;2023-04-30T04:58:06;10.82;;;4.72;;
63801;SDS011;49949;43.060;25.624;2023-04-30T05:01:00;7.22;;;3.58;;
63801;SDS011;49949;43.060;25.624;2023-04-30T05:03:32;10.95;;;3.97;;
63801;SDS011;49949;43.060;25.624;2023-04-30T05:05:58;6.63;;;3.75;;
63801;SDS011;49949;43.060;25.624;2023-04-30T05:08:25;10.98;;;4.70;;
63801;SDS011;49949;43.060;25.624;2023-04-30T05:10:51;11.63;;;4.70;;
63801;SDS011;49949;43.060;25.624;2023-04-30T05:13:19;16.98;;;4.97;;
63801;SDS011;49949;43.060;25.624;2023-04-30T05:15:45;16.27;;;5.82;;
63801;SDS011;49949;43.060;25.624;2023-04-30T05:18:11;21.38;;;6.45;;
63801;SDS011;49949;43.060;25.624;2023-04-30T05:20:37;18.27;;;6.30;;
63801;SDS011;49949;43.060;25.624;2023-04-30T05:23:03;10.68;;;6.10;;
63801;SDS011;49949;43.060;25.624;2023-04-30T05:25:29;21.55;;;6.18;;
63801;SDS011;49949;43.060;25.624;2023-04-30T05:27:58;32.78;;;9.10;;
63801;SDS011;49949;43.060;25.624;2023-04-30T05:30:24;19.33;;;7.18;;
63801;SDS011;49949;43.060;25.624;2023-04-30T05:32:51;16.42;;;7.57;;
63801;SDS011;49949;43.060;25.624;2023-04-30T05:35:18;17.27;;;8.68;;
63801;SDS011;49949;43.060;25.624;2023-04-30T05:37:44;13.25;;;8.15;;
63801;SDS011;49949;43.060;25.624;2023-04-30T05:40:20;22.30;;;7.43;;
63801;SDS011;49949;43.060;25.624;2023-04-30T05:42:46;16.00;;;7.25;;
63801;SDS011;49949;43.060;25.624;2023-04-30T05:45:12;33.65;;;8.20;;
63801;SDS011;49949;43.060;25.624;2023-04-30T05:47:41;27.58;;;7.32;;
63801;SDS011;49949;43.060;25.624;2023-04-30T05:50:08;23.63;;;7.35;;
63801;SDS011;49949;43.060;25.624;2023-04-30T05:52:34;28.52;;;9.38;;
63801;SDS011;49949;43.060;25.624;2023-04-30T05:55:00;22.63;;;8.77;;
63801;SDS011;49949;43.060;25.624;2023-04-30T05:57:26;25.90;;;9.60;;
63801;SDS011;49949;43.060;25.624;2023-04-30T05:59:51;15.40;;;9.10;;
63801;SDS011;49949;43.060;25.624;2023-04-30T06:02:18;23.38;;;9.75;;
63801;SDS011;49949;43.060;25.624;2023-04-30T06:04:44;19.73;;;8.80;;
63801;SDS011;49949;43.060;25.624;2023-04-30T06:07:10;14.68;;;8.30;;
63801;SDS011;49949;43.060;25.624;2023-04-30T06:09:35;17.77;;;7.88;;
63801;SDS011;49949;43.060;25.624;2023-04-30T06:12:02;14.35;;;7.18;;
63801;SDS011;49949;43.060;25.624;2023-04-30T06:14:28;13.93;;;6.28;;
63801;SDS011;49949;43.060;25.624;2023-04-30T06:16:54;17.50;;;6.80;;
63801;SDS011;49949;43.060;25.624;2023-04-30T06:19:30;13.40;;;5.40;;
63801;SDS011;49949;43.060;25.624;2023-04-30T06:21:55;6.43;;;4.50;;
63801;SDS011;49949;43.060;25.624;2023-04-30T06:24:21;8.27;;;4.35;;
63801;SDS011;49949;43.060;25.624;2023-04-30T06:26:47;15.68;;;4.50;;
63801;SDS011;49949;43.060;25.624;2023-04-30T06:29:13;8.52;;;4.30;;
63801;SDS011;49949;43.060;25.624;2023-04-30T06:31:38;9.60;;;3.75;;
63801;SDS011;49949;43.060;25.624;2023-04-30T06:34:04;14.35;;;4.75;;
63801;SDS011;49949;43.060;25.624;2023-04-30T06:36:30;12.57;;;4.35;;
63801;SDS011;49949;43.060;25.624;2023-04-30T06:38:56;10.50;;;4.30;;
63801;SDS011;49949;43.060;25.624;2023-04-30T06:41:22;9.65;;;4.35;;
63801;SDS011;49949;43.060;25.624;2023-04-30T06:43:48;11.75;;;4.00;;
63801;SDS011;49949;43.060;25.624;2023-04-30T06:46:14;11.52;;;4.60;;
63801;SDS011;49949;43.060;25.624;2023-04-30T06:48:40;13.95;;;6.60;;
63801;SDS011;49949;43.060;25.624;2023-04-30T06:51:06;15.15;;;6.82;;
63801;SDS011;49949;43.060;25.624;2023-04-30T06:53:32;19.23;;;6.10;;
63801;SDS011;49949;43.060;25.624;2023-04-30T06:55:58;16.23;;;5.72;;
63801;SDS011;49949;43.060;25.624;2023-04-30T06:58:24;17.00;;;5.40;;
63801;SDS011;49949;43.060;25.624;2023-04-30T07:00:50;9.10;;;4.47;;
63801;SDS011;49949;43.060;25.624;2023-04-30T07:03:16;14.85;;;6.57;;
63801;SDS011;49949;43.060;25.624;2023-04-30T07:05:42;20.45;;;8.10;;
63801;SDS011;49949;43.060;25.624;2023-04-30T07:08:09;18.80;;;6.95;;
63801;SDS011;49949;43.060;25.624;2023-04-30T07:10:35;12.55;;;6.30;;
63801;SDS011;49949;43.060;25.624;2023-04-30T07:13:01;12.98;;;4.50;;
63801;SDS011;49949;43.060;25.624;2023-04-30T07:15:26;8.65;;;4.00;;
63801;SDS011;49949;43.060;25.624;2023-04-30T07:17:55;13.32;;;4.00;;
63801;SDS011;49949;43.060;25.624;2023-04-30T07:20:20;6.55;;;2.80;;
63801;SDS011;49949;43.060;25.624;2023-04-30T07:22:46;4.53;;;2.20;;
63801;SDS011;49949;43.060;25.624;2023-04-30T07:25:12;6.95;;;2.78;;
63801;SDS011;49949;43.060;25.624;2023-04-30T07:27:39;9.27;;;2.80;;
63801;SDS011;49949;43.060;25.624;2023-04-30T07:30:05;3.85;;;1.80;;
63801;SDS011;49949;43.060;25.624;2023-04-30T07:32:33;8.07;;;2.30;;
63801;SDS011;49949;43.060;25.624;2023-04-30T07:35:01;7.32;;;2.45;;
63801;SDS011;49949;43.060;25.624;2023-04-30T07:37:28;8.63;;;2.63;;
63801;SDS011;49949;43.060;25.624;2023-04-30T07:39:53;9.48;;;2.70;;
63801;SDS011;49949;43.060;25.624;2023-04-30T07:42:19;5.20;;;2.88;;
63801;SDS011;49949;43.060;25.624;2023-04-30T07:44:45;7.07;;;2.60;;
63801;SDS011;49949;43.060;25.624;2023-04-30T07:47:13;8.90;;;2.80;;
63801;SDS011;49949;43.060;25.624;2023-04-30T07:49:40;4.15;;;2.90;;
63801;SDS011;49949;43.060;25.624;2023-04-30T07:52:06;10.88;;;4.50;;
63801;SDS011;49949;43.060;25.624;2023-04-30T07:54:35;6.15;;;3.58;;
63801;SDS011;49949;43.060;25.624;2023-04-30T07:57:02;8.63;;;4.20;;
63801;SDS011;49949;43.060;25.624;2023-04-30T07:59:31;9.00;;;3.95;;
63801;SDS011;49949;43.060;25.624;2023-04-30T08:01:58;5.57;;;3.55;;
63801;SDS011;49949;43.060;25.624;2023-04-30T08:04:24;10.82;;;3.70;;
63801;SDS011;49949;43.060;25.624;2023-04-30T08:06:49;9.00;;;2.95;;
63801;SDS011;49949;43.060;25.624;2023-04-30T08:09:15;27.92;;;3.10;;
63801;SDS011;49949;43.060;25.624;2023-04-30T08:11:41;4.90;;;2.78;;
63801;SDS011;49949;43.060;25.624;2023-04-30T08:14:07;8.88;;;3.00;;
63801;SDS011;49949;43.060;25.624;2023-04-30T08:16:32;5.88;;;2.90;;
63801;SDS011;49949;43.060;25.624;2023-04-30T08:18:58;13.35;;;2.40;;
63801;SDS011;49949;43.060;25.624;2023-04-30T08:21:25;17.77;;;2.95;;
63801;SDS011;49949;43.060;25.624;2023-04-30T08:23:52;15.52;;;2.28;;
63801;SDS011;49949;43.060;25.624;2023-04-30T08:26:18;12.13;;;2.65;;
63801;SDS011;49949;43.060;25.624;2023-04-30T08:28:45;21.73;;;3.92;;
63801;SDS011;49949;43.060;25.624;2023-04-30T08:31:11;9.80;;;2.00;;
63801;SDS011;49949;43.060;25.624;2023-04-30T08:33:37;2.25;;;1.85;;
63801;SDS011;49949;43.060;25.624;2023-04-30T08:36:04;3.50;;;1.60;;
63801;SDS011;49949;43.060;25.624;2023-04-30T08:38:30;1.88;;;1.20;;
63801;SDS011;49949;43.060;25.624;2023-04-30T08:41:05;9.35;;;2.15;;
63801;SDS011;49949;43.060;25.624;2023-04-30T08:43:38;4.07;;;1.85;;
63801;SDS011;49949;43.060;25.624;2023-04-30T08:46:05;5.35;;;1.90;;
63801;SDS011;49949;43.060;25.624;2023-04-30T08:48:31;2.50;;;1.25;;
63801;SDS011;49949;43.060;25.624;2023-04-30T08:50:58;4.93;;;1.65;;
63801;SDS011;49949;43.060;25.624;2023-04-30T08:53:27;6.57;;;1.75;;
63801;SDS011;49949;43.060;25.624;2023-04-30T08:55:54;7.20;;;1.27;;
63801;SDS011;49949;43.060;25.624;2023-04-30T08:58:21;3.95;;;1.80;;
63801;SDS011;49949;43.060;25.624;2023-04-30T09:00:47;6.43;;;2.42;;
63801;SDS011;49949;43.060;25.624;2023-04-30T09:03:12;5.20;;;1.85;;
63801;SDS011;49949;43.060;25.624;2023-04-30T09:05:38;3.22;;;2.05;;
63801;SDS011;49949;43.060;25.624;2023-04-30T09:08:06;14.30;;;2.35;;
63801;SDS011;49949;43.060;25.624;2023-04-30T09:10:34;7.80;;;1.98;;
63801;SDS011;49949;43.060;25.624;2023-04-30T09:13:07;1.83;;;1.63;;
63801;SDS011;49949;43.060;25.624;2023-04-30T09:15:36;4.10;;;2.00;;
63801;SDS011;49949;43.060;25.624;2023-04-30T09:18:09;3.20;;;1.75;;
63801;SDS011;49949;43.060;25.624;2023-04-30T09:20:52;9.20;;;1.98;;
63801;SDS011;49949;43.060;25.624;2023-04-30T09:23:19;2.88;;;1.40;;
63801;SDS011;49949;43.060;25.624;2023-04-30T09:25:45;5.07;;;1.92;;
63801;SDS011;49949;43.060;25.624;2023-04-30T09:28:11;2.95;;;2.00;;
63801;SDS011;49949;43.060;25.624;2023-04-30T09:30:38;2.70;;;1.80;;
63801;SDS011;49949;43.060;25.624;2023-04-30T09:33:06;5.70;;;1.80;;
63801;SDS011;49949;43.060;25.624;2023-04-30T09:35:32;8.82;;;1.67;;
63801;SDS011;49949;43.060;25.624;2023-04-30T09:38:00;4.20;;;2.00;;
63801;SDS011;49949;43.060;25.624;2023-04-30T09:43:02;5.07;;;1.80;;
63801;SDS011;49949;43.060;25.624;2023-04-30T09:45:45;3.92;;;1.90;;
63801;SDS011;49949;43.060;25.624;2023-04-30T09:48:17;6.75;;;1.83;;
63801;SDS011;49949;43.060;25.624;2023-04-30T09:50:45;2.00;;;1.55;;
63801;SDS011;49949;43.060;25.624;2023-04-30T09:53:12;28.17;;;2.80;;
63801;SDS011;49949;43.060;25.624;2023-04-30T09:55:42;5.25;;;1.48;;
63801;SDS011;49949;43.060;25.624;2023-04-30T09:58:09;10.40;;;2.47;;
63801;SDS011;49949;43.060;25.624;2023-04-30T10:00:36;7.85;;;2.20;;
63801;SDS011;49949;43.060;25.624;2023-04-30T10:03:06;3.70;;;1.75;;
63801;SDS011;49949;43.060;25.624;2023-04-30T10:05:37;3.85;;;1.83;;
63801;SDS011;49949;43.060;25.624;2023-04-30T10:08:12;4.82;;;1.67;;
63801;SDS011;49949;43.060;25.624;2023-04-30T10:10:57;3.75;;;1.80;;
63801;SDS011;49949;43.060;25.624;2023-04-30T10:13:32;3.97;;;2.00;;
63801;SDS011;49949;43.060;25.624;2023-04-30T10:16:06;3.17;;;1.65;;
63801;SDS011;49949;43.060;25.624;2023-04-30T10:18:39;18.65;;;2.92;;
63801;SDS011;49949;43.060;25.624;2023-04-30T10:21:08;3.08;;;1.60;;
63801;SDS011;49949;43.060;25.624;2023-04-30T10:23:39;6.03;;;1.92;;
63801;SDS011;49949;43.060;25.624;2023-04-30T10:26:09;13.55;;;1.77;;
63801;SDS011;49949;43.060;25.624;2023-04-30T10:28:38;6.72;;;1.73;;
63801;SDS011;49949;43.060;25.624;2023-04-30T10:31:06;6.20;;;1.67;;
63801;SDS011;49949;43.060;25.624;2023-04-30T10:36:41;16.90;;;2.30;;
63801;SDS011;49949;43.060;25.624;2023-04-30T10:39:10;4.38;;;1.70;;
63801;SDS011;49949;43.060;25.624;2023-04-30T10:41:37;5.53;;;1.25;;
63801;SDS011;49949;43.060;25.624;2023-04-30T10:44:03;5.55;;;1.33;;
63801;SDS011;49949;43.060;25.624;2023-04-30T10:46:33;2.08;;;1.30;;
63801;SDS011;49949;43.060;25.624;2023-04-30T10:49:02;5.95;;;1.60;;
63801;SDS011;49949;43.060;25.624;2023-04-30T10:51:43;2.33;;;1.20;;
63801;SDS011;49949;43.060;25.624;2023-04-30T10:54:15;14.90;;;2.10;;
63801;SDS011;49949;43.060;25.624;2023-04-30T10:56:44;5.38;;;1.48;;
63801;SDS011;49949;43.060;25.624;2023-04-30T10:59:11;5.85;;;1.63;;
63801;SDS011;49949;43.060;25.624;2023-04-30T11:01:59;2.97;;;1.60;;
63801;SDS011;49949;43.060;25.624;2023-04-30T11:04:25;27.73;;;2.72;;
63801;SDS011;49949;43.060;25.624;2023-04-30T11:12:02;9.63;;;3.47;;
63801;SDS011;49949;43.060;25.624;2023-04-30T11:15:04;7.50;;;3.00;;
63801;SDS011;49949;43.060;25.624;2023-04-30T11:17:32;11.85;;;2.40;;
63801;SDS011;49949;43.060;25.624;2023-04-30T11:19:58;5.15;;;1.70;;
63801;SDS011;49949;43.060;25.624;2023-04-30T11:22:30;17.38;;;2.30;;
63801;SDS011;49949;43.060;25.624;2023-04-30T11:25:07;3.35;;;1.88;;
63801;SDS011;49949;43.060;25.624;2023-04-30T11:27:34;2.20;;;1.40;;
63801;SDS011;49949;43.060;25.624;2023-04-30T11:30:09;8.68;;;1.88;;
63801;SDS011;49949;43.060;25.624;2023-04-30T11:32:40;12.45;;;2.20;;
63801;SDS011;49949;43.060;25.624;2023-04-30T11:35:11;5.47;;;1.80;;
63801;SDS011;49949;43.060;25.624;2023-04-30T11:37:40;19.70;;;1.90;;
63801;SDS011;49949;43.060;25.624;2023-04-30T11:40:12;5.15;;;1.92;;
63801;SDS011;49949;43.060;25.624;2023-04-30T11:42:39;36.17;;;3.83;;
63801;SDS011;49949;43.060;25.624;2023-04-30T11:45:11;7.45;;;1.42;;
63801;SDS011;49949;43.060;25.624;2023-04-30T11:47:41;2.85;;;1.63;;
63801;SDS011;49949;43.060;25.624;2023-04-30T11:50:12;1.45;;;1.35;;
63801;SDS011;49949;43.060;25.624;2023-04-30T11:52:42;3.33;;;1.30;;
63801;SDS011;49949;43.060;25.624;2023-04-30T11:55:20;14.30;;;2.78;;
63801;SDS011;49949;43.060;25.624;2023-04-30T11:57:53;13.23;;;2.83;;
63801;SDS011;49949;43.060;25.624;2023-04-30T12:00:21;55.53;;;4.55;;
63801;SDS011;49949;43.060;25.624;2023-04-30T12:02:51;6.88;;;2.03;;
63801;SDS011;49949;43.060;25.624;2023-04-30T12:05:18;3.53;;;1.75;;
63801;SDS011;49949;43.060;25.624;2023-04-30T12:10:21;16.92;;;2.20;;
63801;SDS011;49949;43.060;25.624;2023-04-30T12:12:56;5.25;;;2.00;;
63801;SDS011;49949;43.060;25.624;2023-04-30T12:15:23;5.50;;;1.80;;
63801;SDS011;49949;43.060;25.624;2023-04-30T12:17:56;5.88;;;1.90;;
63801;SDS011;49949;43.060;25.624;2023-04-30T12:20:25;2.70;;;1.75;;
63801;SDS011;49949;43.060;25.624;2023-04-30T12:22:53;2.45;;;1.85;;
63801;SDS011;49949;43.060;25.624;2023-04-30T12:25:20;15.63;;;2.13;;
63801;SDS011;49949;43.060;25.624;2023-04-30T12:27:50;2.80;;;1.73;;
63801;SDS011;49949;43.060;25.624;2023-04-30T12:30:24;1.63;;;1.40;;
63801;SDS011;49949;43.060;25.624;2023-04-30T12:32:51;3.72;;;1.55;;
63801;SDS011;49949;43.060;25.624;2023-04-30T12:35:23;6.00;;;2.05;;
63801;SDS011;49949;43.060;25.624;2023-04-30T12:37:53;5.63;;;1.83;;
63801;SDS011;49949;43.060;25.624;2023-04-30T12:40:26;4.95;;;1.85;;
63801;SDS011;49949;43.060;25.624;2023-04-30T12:42:59;3.05;;;1.92;;
63801;SDS011;49949;43.060;25.624;2023-04-30T12:48:10;1.43;;;1.30;;
63801;SDS011;49949;43.060;25.624;2023-04-30T12:50:40;1.70;;;1.60;;
63801;SDS011;49949;43.060;25.624;2023-04-30T12:53:07;5.40;;;1.58;;
63801;SDS011;49949;43.060;25.624;2023-04-30T12:55:33;2.10;;;1.38;;
63801;SDS011;49949;43.060;25.624;2023-04-30T12:58:08;4.65;;;1.52;;
63801;SDS011;49949;43.060;25.624;2023-04-30T13:03:14;5.47;;;1.75;;
63801;SDS011;49949;43.060;25.624;2023-04-30T13:05:45;3.53;;;1.73;;
63801;SDS011;49949;43.060;25.624;2023-04-30T13:08:12;13.48;;;2.47;;
63801;SDS011;49949;43.060;25.624;2023-04-30T13:10:38;7.18;;;1.70;;
63801;SDS011;49949;43.060;25.624;2023-04-30T13:13:07;3.50;;;1.70;;
63801;SDS011;49949;43.060;25.624;2023-04-30T13:15:34;3.70;;;1.38;;
63801;SDS011;49949;43.060;25.624;2023-04-30T13:18:00;6.35;;;1.75;;
63801;SDS011;49949;43.060;25.624;2023-04-30T13:20:25;4.60;;;1.77;;
63801;SDS011;49949;43.060;25.624;2023-04-30T13:22:51;10.75;;;2.60;;
63801;SDS011;49949;43.060;25.624;2023-04-30T13:25:18;9.85;;;2.78;;
63801;SDS011;49949;43.060;25.624;2023-04-30T13:27:52;21.55;;;2.28;;
63801;SDS011;49949;43.060;25.624;2023-04-30T13:30:23;9.02;;;1.67;;
63801;SDS011;49949;43.060;25.624;2023-04-30T13:32:50;2.83;;;1.30;;
63801;SDS011;49949;43.060;25.624;2023-04-30T13:35:16;1.55;;;1.42;;
63801;SDS011;49949;43.060;25.624;2023-04-30T13:37:43;6.95;;;2.55;;
63801;SDS011;49949;43.060;25.624;2023-04-30T13:40:09;2.35;;;1.38;;
63801;SDS011;49949;43.060;25.624;2023-04-30T13:42:39;30.13;;;2.38;;
63801;SDS011;49949;43.060;25.624;2023-04-30T13:45:07;3.50;;;1.40;;
63801;SDS011;49949;43.060;25.624;2023-04-30T13:47:33;17.30;;;1.98;;
63801;SDS011;49949;43.060;25.624;2023-04-30T13:49:59;3.42;;;1.60;;
63801;SDS011;49949;43.060;25.624;2023-04-30T13:52:26;3.78;;;1.67;;
63801;SDS011;49949;43.060;25.624;2023-04-30T13:54:56;4.13;;;1.70;;
63801;SDS011;49949;43.060;25.624;2023-04-30T13:57:28;2.33;;;1.63;;
63801;SDS011;49949;43.060;25.624;2023-04-30T13:59:56;17.05;;;2.10;;
63801;SDS011;49949;43.060;25.624;2023-04-30T14:02:22;2.85;;;1.48;;
63801;SDS011;49949;43.060;25.624;2023-04-30T14:04:48;2.22;;;1.20;;
63801;SDS011;49949;43.060;25.624;2023-04-30T14:07:14;15.73;;;2.20;;
63801;SDS011;49949;43.060;25.624;2023-04-30T14:12:16;2.80;;;1.60;;
63801;SDS011;49949;43.060;25.624;2023-04-30T14:14:42;7.70;;;1.80;;
63801;SDS011;49949;43.060;25.624;2023-04-30T14:17:07;14.32;;;2.50;;
63801;SDS011;49949;43.060;25.624;2023-04-30T14:19:33;3.47;;;1.90;;
63801;SDS011;49949;43.060;25.624;2023-04-30T14:21:59;6.10;;;1.58;;
63801;SDS011;49949;43.060;25.624;2023-04-30T14:24:25;3.15;;;1.60;;
63801;SDS011;49949;43.060;25.624;2023-04-30T14:26:52;4.35;;;1.70;;
63801;SDS011;49949;43.060;25.624;2023-04-30T14:29:17;6.20;;;2.10;;
63801;SDS011;49949;43.060;25.624;2023-04-30T14:31:44;11.15;;;2.20;;
63801;SDS011;49949;43.060;25.624;2023-04-30T14:34:10;14.48;;;2.47;;
63801;SDS011;49949;43.060;25.624;2023-04-30T14:36:37;5.70;;;1.95;;
63801;SDS011;49949;43.060;25.624;2023-04-30T14:39:03;2.08;;;1.55;;
63801;SDS011;49949;43.060;25.624;2023-04-30T14:41:34;5.25;;;1.70;;
63801;SDS011;49949;43.060;25.624;2023-04-30T14:44:02;25.48;;;2.55;;
63801;SDS011;49949;43.060;25.624;2023-04-30T14:46:29;26.95;;;2.10;;
63801;SDS011;49949;43.060;25.624;2023-04-30T14:48:55;9.93;;;1.98;;
63801;SDS011;49949;43.060;25.624;2023-04-30T14:51:21;9.68;;;1.33;;
63801;SDS011;49949;43.060;25.624;2023-04-30T14:53:47;8.07;;;1.92;;
63801;SDS011;49949;43.060;25.624;2023-04-30T14:56:13;4.22;;;1.90;;
63801;SDS011;49949;43.060;25.624;2023-04-30T14:58:39;16.63;;;2.00;;
63801;SDS011;49949;43.060;25.624;2023-04-30T15:01:05;1.67;;;1.45;;
63801;SDS011;49949;43.060;25.624;2023-04-30T15:03:35;4.78;;;2.10;;
63801;SDS011;49949;43.060;25.624;2023-04-30T15:06:05;1.75;;;1.42;;
63801;SDS011;49949;43.060;25.624;2023-04-30T15:08:32;1.45;;;1.25;;
63801;SDS011;49949;43.060;25.624;2023-04-30T15:10:58;6.00;;;1.83;;
63801;SDS011;49949;43.060;25.624;2023-04-30T15:13:29;2.33;;;1.50;;
63801;SDS011;49949;43.060;25.624;2023-04-30T15:15:56;1.52;;;1.25;;
63801;SDS011;49949;43.060;25.624;2023-04-30T15:18:22;3.10;;;1.50;;
63801;SDS011;49949;43.060;25.624;2023-04-30T15:20:48;2.05;;;1.42;;
63801;SDS011;49949;43.060;25.624;2023-04-30T15:23:15;10.23;;;1.80;;
63801;SDS011;49949;43.060;25.624;2023-04-30T15:25:41;4.65;;;1.40;;
63801;SDS011;49949;43.060;25.624;2023-04-30T15:28:08;9.77;;;2.28;;